createdAt,value
2018-06-08T00:00:35.634Z,86.41
2018-06-08T00:01:35.869Z,87.08
2018-06-08T00:02:36.103Z,86.69
2018-06-08T00:03:36.336Z,87.18
2018-06-08T00:04:36.568Z,87.18
2018-06-08T00:05:36.802Z,86.22
2018-06-08T00:06:37.035Z,86.99
2018-06-08T00:07:37.271Z,86.89
2018-06-08T00:08:37.502Z,86.55
2018-06-08T00:09:37.740Z,86.22
2018-06-08T00:10:37.968Z,86.12
2018-06-08T00:11:38.200Z,86.31
2018-06-08T00:12:38.431Z,86.02
2018-06-08T00:13:38.665Z,87.12
2018-06-08T00:14:38.897Z,87.27
2018-06-08T00:15:39.129Z,86.16
2018-06-08T00:16:39.362Z,86.16
2018-06-08T00:17:39.596Z,85.87
2018-06-08T00:18:39.832Z,86.45
2018-06-08T00:19:40.066Z,86.35
2018-06-08T00:20:40.297Z,86.99
2018-06-08T00:21:40.531Z,88.33
2018-06-08T00:22:40.765Z,88.04
2018-06-08T00:23:40.997Z,87.95
2018-06-08T00:24:41.230Z,88.43
2018-06-08T00:25:41.464Z,87.95
2018-06-08T00:26:41.696Z,87.56
2018-06-08T00:27:41.932Z,87.46
2018-06-08T00:28:42.162Z,87.41
2018-06-08T00:29:42.397Z,87.03
2018-06-08T00:30:42.630Z,86.79
2018-06-08T00:31:42.862Z,87.22
2018-06-08T00:32:43.100Z,86.89
2018-06-08T00:33:43.325Z,86.79
2018-06-08T00:34:43.560Z,87.76
2018-06-08T00:35:43.794Z,87.46
2018-06-08T00:36:44.027Z,87.85
2018-06-08T00:37:44.260Z,88.33
2018-06-08T00:38:44.485Z,88.00
2018-06-08T00:39:44.719Z,88.57
2018-06-08T00:40:44.954Z,88.39
2018-06-08T00:41:45.187Z,87.95
2018-06-08T00:42:45.418Z,87.71
2018-06-08T00:43:45.655Z,88.43
2018-06-08T00:44:45.888Z,88.04
2018-06-08T00:45:46.119Z,88.24
2018-06-08T00:46:46.352Z,88.04
2018-06-08T00:47:46.584Z,88.04
2018-06-08T00:48:46.816Z,88.04
2018-06-08T00:49:47.052Z,88.04
2018-06-08T00:50:47.286Z,88.04
2018-06-08T00:51:47.525Z,88.33
2018-06-08T00:52:47.749Z,88.24
2018-06-08T00:53:47.981Z,87.56
2018-06-08T00:54:48.258Z,87.85
2018-06-08T00:55:48.492Z,87.37
2018-06-08T00:56:48.723Z,87.76
2018-06-08T00:57:48.960Z,87.56
2018-06-08T00:58:49.187Z,87.37
2018-06-08T00:59:49.420Z,87.46
2018-06-08T01:00:49.652Z,87.66
2018-06-08T01:01:49.885Z,87.85
2018-06-08T01:02:50.117Z,87.27
2018-06-08T01:03:50.349Z,87.56
2018-06-08T01:04:50.583Z,87.66
2018-06-08T01:05:50.814Z,87.66
2018-06-08T01:06:51.050Z,87.56
2018-06-08T01:07:51.282Z,87.76
2018-06-08T01:08:51.513Z,87.27
2018-06-08T01:09:51.746Z,87.46
2018-06-08T01:10:51.980Z,87.46
2018-06-08T01:11:52.212Z,87.66
2018-06-08T01:12:52.445Z,88.04
2018-06-08T01:13:52.684Z,87.46
2018-06-08T01:14:52.909Z,87.56
2018-06-08T01:15:53.143Z,87.76
2018-06-08T01:16:53.380Z,87.76
2018-06-08T01:17:53.611Z,86.99
2018-06-08T01:18:53.843Z,86.79
2018-06-08T01:19:54.076Z,87.66
2018-06-08T01:20:54.308Z,88.53
2018-06-08T01:21:54.542Z,88.04
2018-06-08T01:22:54.773Z,88.24
2018-06-08T01:23:55.006Z,87.95
2018-06-08T01:24:55.238Z,88.24
2018-06-08T01:25:55.471Z,88.24
2018-06-08T01:26:55.704Z,88.33
2018-06-08T01:27:55.935Z,88.24
2018-06-08T01:28:56.168Z,88.53
2018-06-08T01:29:56.404Z,88.43
2018-06-08T01:30:56.636Z,88.77
2018-06-08T01:31:56.867Z,88.04
2018-06-08T01:32:57.101Z,88.62
2018-06-08T01:33:57.330Z,88.33
2018-06-08T01:34:57.564Z,88.19
2018-06-08T01:35:57.795Z,88.29
2018-06-08T01:36:58.028Z,88.29
2018-06-08T01:37:58.269Z,88.57
2018-06-08T01:38:58.491Z,88.77
2018-06-08T01:39:58.726Z,88.87
2018-06-08T01:40:58.962Z,89.06
2018-06-08T01:41:59.195Z,88.96
2018-06-08T01:42:59.426Z,88.19
2018-06-08T01:43:59.662Z,87.71
2018-06-08T01:44:59.894Z,88.19
2018-06-08T01:46:00.124Z,88.77
2018-06-08T01:47:00.357Z,88.39
2018-06-08T01:48:00.588Z,88.87
2018-06-08T01:49:00.822Z,88.67
2018-06-08T01:50:01.054Z,89.25
2018-06-08T01:51:01.287Z,89.15
2018-06-08T01:52:01.518Z,89.06
2018-06-08T01:53:01.750Z,89.06
2018-06-08T01:54:01.981Z,88.77
2018-06-08T01:55:02.214Z,88.57
2018-06-08T01:56:02.446Z,89.44
2018-06-08T01:57:02.679Z,89.88
2018-06-08T01:58:02.912Z,90.02
2018-06-08T01:59:03.149Z,89.35
2018-06-08T02:00:03.378Z,89.54
2018-06-08T02:01:03.611Z,89.83
2018-06-08T02:02:03.845Z,89.40
2018-06-08T02:03:04.078Z,89.54
2018-06-08T02:04:04.343Z,89.64
2018-06-08T02:05:04.583Z,90.21
2018-06-08T02:06:04.815Z,91.13
2018-06-08T02:07:05.050Z,91.22
2018-06-08T02:08:05.281Z,91.22
2018-06-08T02:09:05.511Z,91.71
2018-06-08T02:10:05.745Z,91.22
2018-06-08T02:11:05.977Z,91.42
2018-06-08T02:12:06.210Z,91.13
2018-06-08T02:13:06.443Z,91.32
2018-06-08T02:14:06.673Z,92.52
2018-06-08T02:15:06.908Z,93.19
2018-06-08T02:16:07.142Z,93.68
2018-06-08T02:17:07.376Z,93.58
2018-06-08T02:18:07.612Z,93.10
2018-06-08T02:19:07.843Z,92.81
2018-06-08T02:20:08.075Z,93.39
2018-06-08T02:21:08.307Z,93.19
2018-06-08T02:22:08.540Z,93.49
2018-06-08T02:23:08.775Z,92.76
2018-06-08T02:24:09.003Z,91.99
2018-06-08T02:25:09.239Z,92.19
2018-06-08T02:26:09.470Z,91.90
2018-06-08T02:27:09.704Z,92.09
2018-06-08T02:28:09.936Z,92.09
2018-06-08T02:29:10.169Z,92.09
2018-06-08T02:30:10.402Z,91.52
2018-06-08T02:31:10.638Z,91.90
2018-06-08T02:32:10.863Z,91.52
2018-06-08T02:33:11.096Z,91.52
2018-06-08T02:34:11.332Z,91.71
2018-06-08T02:35:11.560Z,91.52
2018-06-08T02:36:11.793Z,91.42
2018-06-08T02:37:12.025Z,91.80
2018-06-08T02:38:12.264Z,91.71
2018-06-08T02:39:12.496Z,91.80
2018-06-08T02:40:12.723Z,91.22
2018-06-08T02:41:12.957Z,91.32
2018-06-08T02:42:13.190Z,91.03
2018-06-08T02:43:13.424Z,91.22
2018-06-08T02:44:13.661Z,91.42
2018-06-08T02:45:13.886Z,92.19
2018-06-08T02:46:14.114Z,93.15
2018-06-08T02:47:14.348Z,93.53
2018-06-08T02:48:14.584Z,93.15
2018-06-08T02:49:14.817Z,92.96
2018-06-08T02:50:15.049Z,92.38
2018-06-08T02:51:15.283Z,93.15
2018-06-08T02:52:15.516Z,93.15
2018-06-08T02:53:15.747Z,93.15
2018-06-08T02:54:15.981Z,93.82
2018-06-08T02:55:16.216Z,93.96
2018-06-08T02:56:16.449Z,94.06
2018-06-08T02:57:16.681Z,94.83
2018-06-08T02:58:16.914Z,94.54
2018-06-08T02:59:17.149Z,94.54
2018-06-08T03:00:17.386Z,94.64
2018-06-08T03:01:17.617Z,94.64
2018-06-08T03:02:17.850Z,94.54
2018-06-08T03:03:18.083Z,93.96
2018-06-08T03:04:18.314Z,93.77
2018-06-08T03:05:18.559Z,93.68
2018-06-08T03:06:18.779Z,94.26
2018-06-08T03:07:19.013Z,94.54
2018-06-08T03:08:19.247Z,95.03
2018-06-08T03:09:19.481Z,94.54
2018-06-08T03:10:19.728Z,94.49
2018-06-08T03:11:19.945Z,93.63
2018-06-08T03:12:20.178Z,94.26
2018-06-08T03:13:20.408Z,93.96
2018-06-08T03:14:20.644Z,94.06
2018-06-08T03:15:20.874Z,94.01
2018-06-08T03:16:21.105Z,94.35
2018-06-08T03:17:21.342Z,93.63
2018-06-08T03:18:21.573Z,93.44
2018-06-08T03:19:21.807Z,93.63
2018-06-08T03:20:22.038Z,94.01
2018-06-08T03:21:22.268Z,93.73
2018-06-08T03:22:22.504Z,93.73
2018-06-08T03:23:22.737Z,94.40
2018-06-08T03:24:22.968Z,93.91
2018-06-08T03:25:23.201Z,93.24
2018-06-08T03:26:23.434Z,92.96
2018-06-08T03:27:23.667Z,93.05
2018-06-08T03:28:23.901Z,93.15
2018-06-08T03:29:24.132Z,93.44
2018-06-08T03:30:24.365Z,92.86
2018-06-08T03:31:24.601Z,93.15
2018-06-08T03:32:24.832Z,93.91
2018-06-08T03:33:25.065Z,93.91
2018-06-08T03:34:25.301Z,93.63
2018-06-08T03:35:25.534Z,93.34
2018-06-08T03:36:25.766Z,93.15
2018-06-08T03:37:25.999Z,93.15
2018-06-08T03:38:26.234Z,93.24
2018-06-08T03:39:26.467Z,92.38
2018-06-08T03:40:26.700Z,92.19
2018-06-08T03:41:26.935Z,91.61
2018-06-08T03:42:27.160Z,92.47
2018-06-08T03:43:27.408Z,92.38
2018-06-08T03:44:27.644Z,92.19
2018-06-08T03:45:27.875Z,92.13
2018-06-08T03:46:28.109Z,92.13
2018-06-08T03:47:28.342Z,91.94
2018-06-08T03:48:28.576Z,91.27
2018-06-08T03:49:28.809Z,90.98
2018-06-08T03:50:29.045Z,91.17
2018-06-08T03:51:29.277Z,91.27
2018-06-08T03:52:29.508Z,91.27
2018-06-08T03:53:29.743Z,90.79
2018-06-08T03:54:29.978Z,90.79
2018-06-08T03:55:30.214Z,89.92
2018-06-08T03:56:30.443Z,90.89
2018-06-08T03:57:30.673Z,90.89
2018-06-08T03:58:30.906Z,90.31
2018-06-08T03:59:31.140Z,90.69
2018-06-08T04:00:31.377Z,90.50
2018-06-08T04:01:31.608Z,90.89
2018-06-08T04:02:31.895Z,90.59
2018-06-08T04:03:32.079Z,91.27
2018-06-08T04:04:32.304Z,91.17
2018-06-08T04:05:32.540Z,92.23
2018-06-08T04:06:32.773Z,91.85
2018-06-08T04:07:33.005Z,92.23
2018-06-08T04:08:33.236Z,92.13
2018-06-08T04:09:33.472Z,91.94
2018-06-08T04:10:33.704Z,91.56
2018-06-08T04:11:33.938Z,91.66
2018-06-08T04:12:34.168Z,91.27
2018-06-08T04:13:34.401Z,91.27
2018-06-08T04:14:34.635Z,91.56
2018-06-08T04:15:34.868Z,92.13
2018-06-08T04:16:35.101Z,92.04
2018-06-08T04:17:35.334Z,92.13
2018-06-08T04:18:35.569Z,92.47
2018-06-08T04:19:35.806Z,92.04
2018-06-08T04:20:36.037Z,92.43
2018-06-08T04:21:36.271Z,91.85
2018-06-08T04:22:36.502Z,91.27
2018-06-08T04:23:36.735Z,90.98
2018-06-08T04:24:36.967Z,90.83
2018-06-08T04:25:37.198Z,90.73
2018-06-08T04:26:37.432Z,90.73
2018-06-08T04:27:37.665Z,90.93
2018-06-08T04:28:37.898Z,90.83
2018-06-08T04:29:38.130Z,90.26
2018-06-08T04:30:38.362Z,90.16
2018-06-08T04:31:38.595Z,90.35
2018-06-08T04:32:38.849Z,89.97
2018-06-08T04:33:39.060Z,89.49
2018-06-08T04:34:39.294Z,89.29
2018-06-08T04:35:39.530Z,89.68
2018-06-08T04:36:39.772Z,89.58
2018-06-08T04:37:40.001Z,89.49
2018-06-08T04:38:40.234Z,89.68
2018-06-08T04:39:40.468Z,89.39
2018-06-08T04:40:40.697Z,89.87
2018-06-08T04:41:40.933Z,89.39
2018-06-08T04:42:41.161Z,89.97
2018-06-08T04:43:41.395Z,90.26
2018-06-08T04:44:41.631Z,89.68
2018-06-08T04:45:41.862Z,89.39
2018-06-08T04:46:42.095Z,89.20
2018-06-08T04:47:42.325Z,89.10
2018-06-08T04:48:42.559Z,89.97
2018-06-08T04:49:42.794Z,89.78
2018-06-08T04:50:43.035Z,89.58
2018-06-08T04:51:43.310Z,89.20
2018-06-08T04:52:43.493Z,89.39
2018-06-08T04:53:43.727Z,88.81
2018-06-08T04:54:43.958Z,89.34
2018-06-08T04:55:44.193Z,89.39
2018-06-08T04:56:44.426Z,88.71
2018-06-08T04:57:44.660Z,88.85
2018-06-08T04:58:44.892Z,88.85
2018-06-08T04:59:45.127Z,88.95
2018-06-08T05:00:45.359Z,89.01
2018-06-08T05:01:45.590Z,89.20
2018-06-08T05:02:45.824Z,89.10
2018-06-08T05:03:46.063Z,89.63
2018-06-08T05:04:46.301Z,88.91
2018-06-08T05:05:46.531Z,88.95
2018-06-08T05:06:46.764Z,88.85
2018-06-08T05:07:46.995Z,89.24
2018-06-08T05:08:47.228Z,88.67
2018-06-08T05:09:47.463Z,88.76
2018-06-08T05:10:47.697Z,88.76
2018-06-08T05:11:47.929Z,88.18
2018-06-08T05:12:48.161Z,88.76
2018-06-08T05:13:48.393Z,88.67
2018-06-08T05:14:48.627Z,88.67
2018-06-08T05:15:48.864Z,88.38
2018-06-08T05:16:49.099Z,88.67
2018-06-08T05:17:49.331Z,88.13
2018-06-08T05:18:49.565Z,88.42
2018-06-08T05:19:49.796Z,87.84
2018-06-08T05:20:50.032Z,87.94
2018-06-08T05:21:50.262Z,87.36
2018-06-08T05:22:50.495Z,87.74
2018-06-08T05:23:50.727Z,87.36
2018-06-08T05:24:50.962Z,87.84
2018-06-08T05:25:51.194Z,87.74
2018-06-08T05:26:51.426Z,87.55
2018-06-08T05:27:51.659Z,87.74
2018-06-08T05:28:51.893Z,87.36
2018-06-08T05:29:52.124Z,87.26
2018-06-08T05:30:52.357Z,86.98
2018-06-08T05:31:52.597Z,86.98
2018-06-08T05:32:52.827Z,86.44
2018-06-08T05:33:53.053Z,86.21
2018-06-08T05:34:53.286Z,86.44
2018-06-08T05:35:53.523Z,86.63
2018-06-08T05:36:53.760Z,86.25
2018-06-08T05:37:53.988Z,86.44
2018-06-08T05:38:54.221Z,86.54
2018-06-08T05:39:54.454Z,86.35
2018-06-08T05:40:54.689Z,86.82
2018-06-08T05:41:54.923Z,85.86
2018-06-08T05:42:55.158Z,86.25
2018-06-08T05:43:55.392Z,86.98
2018-06-08T05:44:55.624Z,87.36
2018-06-08T05:45:55.857Z,87.65
2018-06-08T05:46:56.095Z,87.84
2018-06-08T05:47:56.324Z,87.07
2018-06-08T05:48:56.561Z,87.46
2018-06-08T05:49:57.259Z,86.54
2018-06-08T05:50:56.990Z,86.25
2018-06-08T05:51:57.219Z,85.96
2018-06-08T05:52:57.452Z,85.77
2018-06-08T05:53:57.684Z,85.77
2018-06-08T05:54:57.920Z,85.67
2018-06-08T05:55:58.152Z,85.57
2018-06-08T05:56:58.384Z,85.28
2018-06-08T05:57:58.623Z,85.67
2018-06-08T05:58:58.848Z,85.47
2018-06-08T05:59:59.084Z,85.77
2018-06-08T06:00:59.318Z,85.57
2018-06-08T06:01:59.549Z,85.13
2018-06-08T06:02:59.784Z,85.13
2018-06-08T06:04:00.018Z,85.03
2018-06-08T06:05:00.252Z,84.27
2018-06-08T06:06:00.494Z,83.59
2018-06-08T06:07:00.723Z,83.69
2018-06-08T06:08:00.953Z,83.34
2018-06-08T06:09:01.196Z,83.25
2018-06-08T06:10:01.426Z,83.05
2018-06-08T06:11:01.658Z,83.50
2018-06-08T06:12:01.902Z,82.86
2018-06-08T06:13:02.117Z,82.18
2018-06-08T06:14:02.351Z,81.70
2018-06-08T06:15:02.593Z,81.70
2018-06-08T06:16:02.818Z,81.99
2018-06-08T06:17:03.059Z,82.28
2018-06-08T06:18:03.287Z,81.99
2018-06-08T06:19:03.525Z,81.90
2018-06-08T06:20:03.758Z,81.07
2018-06-08T06:21:03.998Z,81.07
2018-06-08T06:22:04.225Z,81.16
2018-06-08T06:23:04.464Z,80.87
2018-06-08T06:24:04.695Z,81.26
2018-06-08T06:25:04.956Z,80.97
2018-06-08T06:26:05.165Z,81.26
2018-06-08T06:27:05.390Z,80.97
2018-06-08T06:28:05.638Z,80.78
2018-06-08T06:29:05.874Z,80.43
2018-06-08T06:30:06.108Z,80.14
2018-06-08T06:31:06.343Z,80.18
2018-06-08T06:32:06.577Z,79.50
2018-06-08T06:33:07.037Z,79.12
2018-06-08T06:34:07.014Z,77.76
2018-06-08T06:35:07.372Z,77.86
2018-06-08T06:36:07.609Z,77.48
2018-06-08T06:37:07.654Z,77.80
2018-06-08T06:38:07.893Z,78.38
2018-06-08T06:39:08.125Z,77.32
2018-06-08T06:40:08.364Z,77.22
2018-06-08T06:41:08.596Z,77.03
2018-06-08T06:42:08.831Z,75.62
2018-06-08T06:43:09.066Z,76.10
2018-06-08T06:44:09.302Z,75.87
2018-06-08T06:45:09.537Z,76.01
2018-06-08T06:46:09.773Z,75.81
2018-06-08T06:47:10.009Z,75.52
2018-06-08T06:48:10.244Z,76.78
2018-06-08T06:49:10.492Z,76.49
2018-06-08T06:50:10.719Z,75.43
2018-06-08T06:51:11.111Z,73.72
2018-06-08T06:52:11.470Z,73.72
2018-06-08T06:53:12.041Z,73.47
2018-06-08T06:54:12.220Z,73.08
2018-06-08T06:55:12.577Z,72.24
2018-06-08T06:56:12.636Z,70.98
2018-06-08T06:57:12.497Z,69.43
2018-06-08T06:58:12.859Z,69.57
2018-06-08T06:59:13.126Z,68.79
2018-06-08T07:00:13.344Z,68.30
2018-06-08T07:01:13.552Z,68.21
2018-06-08T07:02:13.808Z,68.21
2018-06-08T07:03:14.047Z,68.40
2018-06-08T07:04:14.999Z,68.21
2018-06-08T07:05:14.441Z,67.95
2018-06-08T07:06:14.710Z,67.47
2018-06-08T07:07:14.959Z,66.69
2018-06-08T07:08:15.123Z,66.50
2018-06-08T07:09:15.386Z,66.20
2018-06-08T07:10:15.621Z,65.47
2018-06-08T07:11:16.044Z,65.75
2018-06-08T07:12:16.146Z,65.27
2018-06-08T07:13:16.634Z,65.40
2018-06-08T07:14:17.091Z,64.62
2018-06-08T07:15:16.764Z,64.43
2018-06-08T07:16:16.867Z,64.53
2018-06-08T07:17:17.101Z,64.43
2018-06-08T07:18:17.339Z,64.53
2018-06-08T07:19:17.574Z,64.43
2018-06-08T07:20:17.811Z,63.98
2018-06-08T07:21:18.047Z,63.68
2018-06-08T07:22:18.282Z,64.36
2018-06-08T07:23:18.517Z,64.07
2018-06-08T07:24:18.753Z,64.26
2018-06-08T07:25:18.990Z,64.07
2018-06-08T07:26:19.226Z,63.29
2018-06-08T07:27:19.465Z,63.20
2018-06-08T07:28:19.700Z,64.65
2018-06-08T07:29:19.939Z,63.68
2018-06-08T07:30:20.175Z,64.26
2018-06-08T07:31:20.410Z,63.98
2018-06-08T07:32:20.647Z,64.69
2018-06-08T07:33:20.887Z,62.94
2018-06-08T07:34:21.159Z,62.45
2018-06-08T07:35:21.359Z,63.29
2018-06-08T07:36:21.595Z,62.62
2018-06-08T07:37:21.834Z,63.49
2018-06-08T07:38:22.069Z,63.68
2018-06-08T07:39:22.305Z,63.29
2018-06-08T07:40:22.542Z,62.32
2018-06-08T07:41:22.778Z,62.45
2018-06-08T07:42:23.014Z,62.35
2018-06-08T07:43:23.251Z,62.04
2018-06-08T07:44:23.489Z,63.88
2018-06-08T07:45:23.726Z,63.20
2018-06-08T07:46:23.962Z,63.29
2018-06-08T07:47:24.206Z,63.49
2018-06-08T07:48:24.436Z,62.81
2018-06-08T07:49:24.672Z,63.20
2018-06-08T07:50:24.908Z,62.71
2018-06-08T07:51:25.147Z,62.26
2018-06-08T07:52:25.386Z,62.65
2018-06-08T07:53:25.620Z,61.68
2018-06-08T07:54:25.857Z,61.38
2018-06-08T07:55:26.097Z,61.71
2018-06-08T07:56:26.332Z,61.77
2018-06-08T07:57:26.571Z,62.35
2018-06-08T07:58:26.806Z,60.83
2018-06-08T07:59:27.045Z,61.02
2018-06-08T08:00:27.287Z,60.86
2018-06-08T08:01:27.525Z,60.93
2018-06-08T08:02:27.777Z,61.93
2018-06-08T08:03:28.005Z,62.32
2018-06-08T08:04:28.248Z,60.79
2018-06-08T08:05:28.487Z,59.72
2018-06-08T08:06:28.726Z,59.43
2018-06-08T08:07:28.963Z,59.33
2018-06-08T08:08:29.199Z,59.23
2018-06-08T08:09:29.438Z,59.05
2018-06-08T08:10:29.675Z,59.23
2018-06-08T08:11:29.914Z,59.63
2018-06-08T08:12:30.151Z,58.26
2018-06-08T08:13:30.396Z,59.89
2018-06-08T08:14:30.634Z,59.05
2018-06-08T08:15:30.868Z,59.53
2018-06-08T08:16:31.104Z,59.41
2018-06-08T08:17:31.346Z,59.38
2018-06-08T08:18:31.634Z,58.56
2018-06-08T08:19:31.821Z,58.46
2018-06-08T08:20:32.059Z,57.97
2018-06-08T08:21:32.299Z,58.36
2018-06-08T08:22:32.541Z,58.17
2018-06-08T08:23:32.777Z,59.53
2018-06-08T08:24:33.013Z,59.31
2018-06-08T08:25:33.252Z,60.86
2018-06-08T08:26:33.489Z,59.89
2018-06-08T08:27:33.731Z,62.71
2018-06-08T08:28:33.967Z,61.67
2018-06-08T08:29:34.207Z,59.92
2018-06-08T08:30:34.446Z,58.49
2018-06-08T08:31:34.685Z,57.45
2018-06-08T08:32:34.922Z,56.74
2018-06-08T08:33:35.160Z,56.47
2018-06-08T08:34:35.400Z,57.03
2018-06-08T08:35:35.646Z,57.35
2018-06-08T08:36:35.884Z,57.06
2018-06-08T08:37:36.122Z,56.47
2018-06-08T08:38:36.359Z,56.37
2018-06-08T08:39:36.626Z,56.67
2018-06-08T08:40:36.843Z,56.70
2018-06-08T08:41:37.078Z,56.21
2018-06-08T08:42:37.317Z,55.72
2018-06-08T08:43:37.556Z,55.55
2018-06-08T08:44:37.794Z,56.23
2018-06-08T08:45:38.073Z,57.04
2018-06-08T08:46:38.276Z,53.34
2018-06-08T08:47:38.516Z,53.63
2018-06-08T08:48:38.754Z,53.85
2018-06-08T08:49:38.993Z,53.05
2018-06-08T08:50:39.232Z,53.07
2018-06-08T08:51:39.520Z,52.95
2018-06-08T08:52:39.709Z,53.75
2018-06-08T08:53:39.951Z,52.95
2018-06-08T08:54:40.186Z,53.44
2018-06-08T08:55:40.431Z,54.19
2018-06-08T08:56:40.664Z,54.19
2018-06-08T08:57:40.906Z,55.36
2018-06-08T08:58:41.154Z,54.19
2018-06-08T08:59:41.386Z,53.63
2018-06-08T09:00:41.624Z,53.56
2018-06-08T09:01:41.863Z,53.27
2018-06-08T09:02:42.107Z,55.41
2018-06-08T09:03:42.344Z,53.07
2018-06-08T09:04:42.584Z,54.73
2018-06-08T09:05:42.821Z,54.05
2018-06-08T09:06:43.056Z,53.49
2018-06-08T09:07:43.300Z,53.39
2018-06-08T09:08:43.539Z,52.90
2018-06-08T09:09:43.780Z,52.90
2018-06-08T09:10:44.018Z,54.34
2018-06-08T09:11:44.262Z,55.51
2018-06-08T09:12:44.505Z,53.66
2018-06-08T09:13:44.746Z,53.92
2018-06-08T09:14:44.986Z,54.11
2018-06-08T09:15:45.225Z,54.11
2018-06-08T09:16:45.466Z,54.68
2018-06-08T09:17:45.704Z,54.36
2018-06-08T09:18:45.945Z,55.46
2018-06-08T09:19:46.184Z,55.23
2018-06-08T09:20:46.422Z,56.11
2018-06-08T09:21:46.658Z,55.91
2018-06-08T09:22:46.897Z,56.01
2018-06-08T09:23:47.139Z,55.33
2018-06-08T09:24:47.402Z,55.72
2018-06-08T09:25:47.638Z,55.16
2018-06-08T09:26:47.876Z,54.58
2018-06-08T09:27:48.113Z,54.77
2018-06-08T09:28:48.358Z,55.55
2018-06-08T09:29:48.595Z,55.46
2018-06-08T09:30:48.835Z,55.16
2018-06-08T09:31:49.077Z,54.68
2018-06-08T09:32:49.312Z,55.07
2018-06-08T09:33:49.552Z,53.99
2018-06-08T09:34:49.790Z,55.65
2018-06-08T09:35:50.032Z,54.99
2018-06-08T09:36:50.275Z,54.21
2018-06-08T09:37:50.515Z,53.27
2018-06-08T09:38:50.752Z,53.66
2018-06-08T09:39:50.990Z,53.19
2018-06-08T09:40:51.230Z,55.05
2018-06-08T09:41:51.475Z,53.97
2018-06-08T09:42:51.711Z,54.27
2018-06-08T09:43:51.950Z,54.17
2018-06-08T09:44:52.190Z,54.95
2018-06-08T09:45:52.430Z,54.75
2018-06-08T09:46:52.669Z,55.71
2018-06-08T09:47:52.907Z,55.09
2018-06-08T09:48:53.148Z,55.41
2018-06-08T09:49:53.387Z,54.14
2018-06-08T09:50:53.627Z,53.68
2018-06-08T09:51:53.869Z,53.49
2018-06-08T09:52:54.104Z,54.07
2018-06-08T09:53:54.345Z,54.30
2018-06-08T09:54:54.588Z,54.30
2018-06-08T09:55:54.830Z,53.32
2018-06-08T09:56:55.066Z,54.30
2018-06-08T09:57:55.306Z,51.66
2018-06-08T09:58:55.546Z,51.27
2018-06-08T09:59:55.788Z,50.71
2018-06-08T10:00:56.027Z,51.20
2018-06-08T10:01:56.263Z,51.32
2018-06-08T10:02:56.502Z,51.22
2018-06-08T10:03:56.741Z,50.73
2018-06-08T10:04:56.982Z,51.54
2018-06-08T10:05:57.222Z,51.34
2018-06-08T10:06:57.461Z,50.66
2018-06-08T10:07:57.712Z,50.85
2018-06-08T10:08:57.943Z,51.07
2018-06-08T10:09:58.181Z,50.98
2018-06-08T10:10:58.426Z,49.41
2018-06-08T10:11:58.663Z,50.29
2018-06-08T10:12:58.905Z,49.58
2018-06-08T10:13:59.145Z,49.41
2018-06-08T10:14:59.383Z,49.70
2018-06-08T10:15:59.626Z,49.21
2018-06-08T10:16:59.870Z,49.70
2018-06-08T10:18:00.111Z,49.70
2018-06-08T10:19:00.350Z,48.82
2018-06-08T10:20:00.588Z,48.36
2018-06-08T10:21:00.830Z,48.26
2018-06-08T10:22:01.116Z,49.92
2018-06-08T10:23:01.316Z,48.85
2018-06-08T10:24:01.552Z,48.16
2018-06-08T10:25:01.817Z,47.97
2018-06-08T10:26:02.029Z,48.55
2018-06-08T10:27:02.273Z,46.89
2018-06-08T10:28:02.513Z,47.45
2018-06-08T10:29:02.775Z,47.75
2018-06-08T10:30:02.995Z,47.75
2018-06-08T10:31:03.235Z,47.06
2018-06-08T10:32:03.476Z,47.26
2018-06-08T10:33:03.716Z,47.06
2018-06-08T10:34:03.964Z,48.07
2018-06-08T10:35:04.200Z,46.86
2018-06-08T10:36:04.435Z,48.53
2018-06-08T10:37:04.674Z,47.16
2018-06-08T10:38:04.919Z,46.57
2018-06-08T10:39:05.158Z,46.86
2018-06-08T10:40:05.402Z,46.75
2018-06-08T10:41:05.641Z,46.84
2018-06-08T10:42:05.881Z,47.92
2018-06-08T10:43:06.125Z,47.92
2018-06-08T10:44:06.360Z,48.09
2018-06-08T10:45:06.607Z,48.58
2018-06-08T10:46:06.843Z,48.48
2018-06-08T10:47:07.083Z,47.89
2018-06-08T10:48:07.324Z,47.99
2018-06-08T10:49:07.570Z,47.89
2018-06-08T10:50:07.806Z,47.89
2018-06-08T10:51:08.044Z,47.99
2018-06-08T10:52:08.286Z,47.72
2018-06-08T10:53:08.527Z,47.82
2018-06-08T10:54:08.763Z,47.82
2018-06-08T10:55:09.006Z,47.53
2018-06-08T10:56:09.247Z,48.50
2018-06-08T10:57:09.487Z,48.21
2018-06-08T10:58:09.729Z,45.47
2018-06-08T10:59:09.969Z,46.06
2018-06-08T11:00:10.212Z,44.52
2018-06-08T11:01:10.451Z,45.59
2018-06-08T11:02:10.691Z,45.79
2018-06-08T11:03:10.932Z,45.69
2018-06-08T11:04:11.176Z,45.72
2018-06-08T11:05:11.413Z,44.54
2018-06-08T11:06:11.653Z,45.05
2018-06-08T11:07:11.896Z,44.76
2018-06-08T11:08:12.136Z,44.17
2018-06-08T11:09:12.376Z,43.60
2018-06-08T11:10:12.616Z,43.02
2018-06-08T11:11:12.856Z,42.99
2018-06-08T11:12:13.103Z,43.29
2018-06-08T11:13:13.340Z,42.82
2018-06-08T11:14:13.579Z,43.98
2018-06-08T11:15:13.822Z,43.88
2018-06-08T11:16:14.064Z,42.60
2018-06-08T11:17:14.304Z,42.50
2018-06-08T11:18:14.564Z,41.62
2018-06-08T11:19:14.797Z,41.62
2018-06-08T11:20:15.047Z,41.82
2018-06-08T11:21:15.284Z,39.84
2018-06-08T11:22:15.527Z,39.15
2018-06-08T11:23:15.765Z,39.06
2018-06-08T11:24:16.010Z,39.17
2018-06-08T11:25:16.250Z,39.17
2018-06-08T11:26:16.495Z,39.78
2018-06-08T11:27:16.733Z,40.37
2018-06-08T11:28:16.976Z,39.19
2018-06-08T11:29:17.215Z,40.08
2018-06-08T11:30:17.459Z,40.56
2018-06-08T11:31:17.701Z,41.64
2018-06-08T11:32:17.942Z,41.62
2018-06-08T11:33:18.183Z,42.58
2018-06-08T11:34:18.424Z,42.97
2018-06-08T11:35:18.664Z,43.05
2018-06-08T11:36:18.908Z,45.37
2018-06-08T11:37:19.152Z,44.28
2018-06-08T11:38:19.391Z,46.82
2018-06-08T11:39:19.670Z,47.80
2018-06-08T11:40:19.878Z,48.26
2018-06-08T11:41:20.118Z,48.71
2018-06-08T11:42:20.360Z,50.26
2018-06-08T11:43:20.599Z,51.24
2018-06-08T11:44:20.839Z,50.73
2018-06-08T11:45:21.082Z,50.73
2018-06-08T11:46:21.321Z,50.73
2018-06-08T11:47:21.564Z,50.92
2018-06-08T11:48:21.804Z,50.92
2018-06-08T11:49:22.046Z,50.92
2018-06-08T11:50:22.287Z,50.82
2018-06-08T11:51:22.531Z,50.63
2018-06-08T11:52:22.769Z,50.16
2018-06-08T11:53:23.007Z,50.68
2018-06-08T11:54:23.249Z,50.20
2018-06-08T11:55:23.488Z,48.46
2018-06-08T11:56:23.732Z,47.36
2018-06-08T11:57:23.973Z,47.24
2018-06-08T11:58:24.213Z,47.53
2018-06-08T11:59:24.457Z,48.00
2018-06-08T12:00:24.698Z,47.80
2018-06-08T12:01:24.933Z,47.73
2018-06-08T12:02:25.173Z,47.92
2018-06-08T12:03:25.413Z,47.90
2018-06-08T12:04:25.656Z,47.90
2018-06-08T12:05:25.897Z,48.68
2018-06-08T12:06:26.135Z,50.92
2018-06-08T12:07:26.372Z,50.63
2018-06-08T12:08:26.615Z,49.63
2018-06-08T12:09:26.856Z,49.54
2018-06-08T12:10:27.094Z,48.29
2018-06-08T12:11:27.336Z,48.39
2018-06-08T12:12:27.578Z,49.37
2018-06-08T12:13:27.820Z,50.04
2018-06-08T12:14:28.057Z,49.85
2018-06-08T12:15:28.297Z,49.37
2018-06-08T12:16:28.539Z,48.56
2018-06-08T12:17:28.778Z,49.71
2018-06-08T12:18:29.017Z,50.80
2018-06-08T12:19:29.255Z,50.02
2018-06-08T12:20:29.493Z,50.41
2018-06-08T12:21:29.741Z,49.63
2018-06-08T12:22:29.981Z,47.90
2018-06-08T12:23:30.216Z,48.71
2018-06-08T12:24:30.457Z,47.92
2018-06-08T12:25:30.701Z,47.53
2018-06-08T12:26:30.939Z,47.41
2018-06-08T12:27:31.179Z,48.32
2018-06-08T12:28:31.421Z,49.29
2018-06-08T12:29:31.663Z,47.92
2018-06-08T12:30:31.902Z,47.92
2018-06-08T12:31:32.142Z,49.00
2018-06-08T12:32:32.385Z,47.63
2018-06-08T12:33:32.628Z,46.66
2018-06-08T12:34:32.909Z,47.53
2018-06-08T12:35:33.105Z,47.05
2018-06-08T12:36:33.347Z,47.83
2018-06-08T12:37:33.585Z,47.61
2018-06-08T12:38:33.828Z,48.32
2018-06-08T12:39:34.072Z,47.02
2018-06-08T12:40:34.312Z,47.83
2018-06-08T12:41:34.553Z,47.05
2018-06-08T12:42:34.792Z,47.92
2018-06-08T12:43:35.053Z,46.85
2018-06-08T12:44:35.270Z,47.05
2018-06-08T12:45:35.511Z,46.36
2018-06-08T12:46:35.753Z,46.00
2018-06-08T12:47:35.993Z,47.36
2018-06-08T12:48:36.235Z,46.70
2018-06-08T12:49:36.473Z,47.19
2018-06-08T12:50:36.715Z,45.21
2018-06-08T12:51:36.955Z,46.01
2018-06-08T12:52:37.196Z,45.33
2018-06-08T12:53:37.437Z,45.43
2018-06-08T12:54:37.676Z,45.14
2018-06-08T12:55:37.973Z,44.45